aviador You're here:

LFRJ Decoded Metar

LANDIVISIAU in FRANCE
Report Time2018-02-20 03:30:00
UTC Time2018-02-20 03:45:33
Flight Rules ifr IFR
Wind340° at 12 kt
W.Decomp.*RWY 26: 1.7 kt HW 11.9 kt RCW
W.Rank340° ranks 18
Current wind is above 340° avg. (8.5)
Visibility9999 m
Phenomena:N/A
Clouds:Overcast 008 Hf
Expected CloudBase > 400 ft AGL from Temp-Dew spread
Ceiling800 ft
Temp09°C (ISA -5)
Dew Point08°C (94% RH)
AAT4.2°C
QNH1021 hPa
Density Alt-377 ft
Elevation377 ft
Report Wrong Elevation
Raw Report
METAR LFRJ 200330Z AUTO 34012KT 9999 OVC008 09/08 Q1021=

Extra information for LFRJ:More info

Metar Taf Metar & Taf Last 4 Metars F.Rules Stats Wind Profile Meteogram Temp Stats Airport Information Weather charts Add Link Nearby VenuesMetar ALERT Operation Metar Decoded Social comments